KCVB

Castroville Municipal Airport

Castroville, Texas, USA
METAR KCVB 170735Z AUTO 29003KT 10SM CLR 09/05 A3028 RMK AO2 T00920045
Observed Flight Rules
Dec-17 @ 07:35 UTC (26 minutes ago) Visual Flight Rules
Wind Visibility Clouds
290° at 3 knots 10 miles
  • Clear skies
Temperatures Readings
Current 9°C / 48°F
Dewpoint 5°C / 41°F
Humidity 76%
Altimeter 30.28" Hg
Pressure 1025 hPa
Elevation 235
METAR KCVB 170735Z AUTO 29003KT 10SM CLR 09/05 A3028 RMK AO2 T00920045
Observed Flight Rules
Dec-17 @ 07:35 UTC
(26 minutes ago)
VFR
Wind Visibility
290° at 3 knots 10 miles
Clouds
  • Clear skies
Temperature Dewpoint
9°C / 48°F 5°C / 41°F
Humidity Altimeter Pressure
76% 30.28" Hg 1025 hPa